• Join FlightAware (Why Join?)
  • Login
  • US Flag 
03:49AM EDT


 

Airport Tracker/Info


-or-


 

Live Flight TrackerFlight Track Log ✈ UPS2872 ✈ 18-Mar-2014 ✈ KSDF - KABQ

Flight Track Log - Related Links

Times and Time Zones

All times are in EDT time to prevent confusion due to time zone crossing. See the UPS2872 flight status page for this flight to view local times or setup timezone preferences in your user account.

Time Position Orientation Groundspeed Altitude Reporting Facility
EDT Latitude Longitude Course Direction KTS MPH feet Rate Location/Type
04:05PM 38.0758 -85.8051 270° West 269 310 6,000  Level FlightAware ADS-B (KBRY)
04:06PM 38.0759 -85.8805 267° West 276 318 8,900 2,580 Climbing FlightAware ADS-B (KBRY)
04:07PM 38.0717 -85.9708 266° West 305 351 10,400 1,620 Climbing FlightAware ADS-B (KEKX)
04:07PM 38.0686 -86.0265 265° West 335 386 11,100 2,940 Climbing FlightAware ADS-B (KEKX)
04:09PM 38.0566 -86.2192 265° West 354 407 17,200 3,420 Climbing FlightAware ADS-B (KBRY)
04:10PM 38.0506 -86.3041 264° West 360 414 18,900 3,420 Climbing FlightAware ADS-B (KEKX)
04:10PM 38.0441 -86.3840 264° West 357 411 21,100 3,000 Climbing FlightAware ADS-B (KEKX)
04:11PM 38.0389 -86.4484 265° West 367 422 22,300 2,520 Climbing FlightAware ADS-B (KEKX)
04:12PM 38.0245 -86.6278 264° West 382 440 25,800 2,340 Climbing FlightAware ADS-B (KBRY)
04:13PM 38.0172 -86.7153 264° West 381 438 27,500 2,520 Climbing Indianapolis Center
04:14PM 38.0081 -86.8497 265° West 376 433 30,600 2,160 Climbing Indianapolis Center
04:15PM 38.0278 -86.9786 281° West 369 425 32,000 660 Climbing Indianapolis Center
04:16PM 38.0567 -87.1281 284° West 361 415 32,000  Level Indianapolis Center
04:17PM 38.0803 -87.2542 283° West 361 415 32,000  Level Indianapolis Center
04:18PM 38.1039 -87.3808 283° West 363 418 32,000  Level Indianapolis Center
04:19PM 38.1275 -87.5081 283° West 364 419 32,000  Level Indianapolis Center
04:20PM 38.1508 -87.6344 283° West 365 420 32,000  Level Indianapolis Center
04:21PM 38.1742 -87.7614 283° West 365 420 32,000  Level Indianapolis Center
04:22PM 38.1969 -87.8875 283° West 365 420 32,000  Level Indianapolis Center
04:23PM 38.2197 -88.0133 283° West 364 419 32,000  Level Indianapolis Center
04:24PM 38.2469 -88.1644 283° West 364 419 32,000  Level Indianapolis Center
04:25PM 38.2661 -88.2658 284° West 365 420 32,000  Level Kansas City Center
04:26PM 38.2883 -88.3906 283° West 363 418 32,000  Level Kansas City Center
04:27PM 38.3103 -88.5142 283° West 361 415 32,000  Level Kansas City Center
04:28PM 38.3364 -88.6644 283° West 361 415 32,000  Level Kansas City Center
04:29PM 38.3561 -88.7936 281° West 362 417 32,000  Level Kansas City Center
04:30PM 38.3783 -88.9189 283° West 363 418 32,000  Level Kansas City Center
04:32PM 38.4011 -89.0531 282° West 363 418 32,000  Level Kansas City Center
04:33PM 38.4217 -89.1772 282° West 360 414 32,000  Level Kansas City Center
04:34PM 38.4344 -89.3108 277° West 356 410 32,000  Level Kansas City Center
04:35PM 38.4444 -89.4147 277° West 353 406 32,000  Level Kansas City Center
04:36PM 38.4592 -89.5625 277° West 352 405 32,000  Level Kansas City Center
04:37PM 38.4706 -89.6833 277° West 348 400 32,000  Level Kansas City Center
04:38PM 38.4819 -89.8050 277° West 348 400 32,000  Level Kansas City Center
04:39PM 38.4936 -89.9261 277° West 348 400 32,000  Level Kansas City Center
04:40PM 38.5053 -90.0478 277° West 346 398 32,000  Level Kansas City Center
04:41PM 38.5203 -90.1692 279° West 345 397 32,000  Level Kansas City Center
04:42PM 38.5436 -90.3161 282° West 345 397 32,000  Level Kansas City Center
04:43PM 38.5636 -90.4397 282° West 347 399 32,000  Level Kansas City Center
04:44PM 38.5792 -90.5617 279° West 348 400 32,000  Level Kansas City Center
04:45PM 38.5956 -90.6847 280° West 348 400 32,000  Level Kansas City Center
04:46PM 38.6131 -90.8108 280° West 348 400 32,000  Level Kansas City Center
04:47PM 38.6294 -90.9339 280° West 348 400 32,000  Level Kansas City Center
04:48PM 38.6461 -91.0544 280° West 348 400 32,000  Level Kansas City Center
04:49PM 38.6622 -91.1758 280° West 347 399 32,000  Level Kansas City Center
04:50PM 38.6786 -91.2972 280° West 347 399 32,000  Level Kansas City Center
04:51PM 38.6975 -91.4386 280° West 347 399 32,000  Level Kansas City Center
04:52PM 38.7136 -91.5631 279° West 347 399 32,000  Level Kansas City Center
04:53PM 38.7283 -91.6833 279° West 346 398 32,000  Level Kansas City Center
04:54PM 38.7439 -91.8019 280° West 346 398 32,000  Level Kansas City Center
04:55PM 38.7619 -91.9483 279° West 346 398 32,000  Level Kansas City Center
04:56PM 38.7769 -92.0706 279° West 346 398 32,000  Level Kansas City Center
04:57PM 38.7914 -92.1931 279° West 346 398 32,000  Level Kansas City Center
04:58PM 38.8072 -92.3172 279° West 347 399 32,000  Level Kansas City Center
04:59PM 38.8219 -92.4406 279° West 348 400 32,000  Level Kansas City Center
05:00PM 38.8367 -92.5653 279° West 349 402 32,000  Level Kansas City Center
05:02PM 38.8550 -92.7169 279° West 353 406 32,000  Level Kansas City Center
05:07PM 38.9428 -93.4765 278° West 370 426 32,000  Level FlightAware ADS-B
05:10PM 38.9834 -93.8452 278° West 373 429 32,000  Level FlightAware ADS-B
05:12PM 38.9941 -94.0417 261° West 370 426 32,000  Level FlightAware ADS-B
05:12PM 38.9817 -94.1342 260° West 370 426 32,000 660 Level FlightAware ADS-B
05:15PM 38.9408 -94.4197 259° West 393 452 34,000 540 Climbing FlightAware ADS-B
05:16PM 38.9153 -94.6000 259° West 390 449 34,000 240 Level Kansas City Center
05:21PM 38.8099 -95.3118 259° West 392 451 36,000 300 Climbing FlightAware ADS-B
05:22PM 38.7915 -95.4338 259° West 394 453 36,000  Level FlightAware ADS-B
05:23PM 38.7789 -95.5161 259° West 395 455 36,000  Level FlightAware ADS-B
05:23PM 38.7646 -95.6098 259° West 394 453 36,000  Level FlightAware ADS-B
05:24PM 38.7531 -95.6847 259° West 392 451 36,000  Level FlightAware ADS-B
05:25PM 38.7348 -95.8019 259° West 391 450 36,000  Level FlightAware ADS-B
05:25PM 38.7254 -95.8626 259° West 388 447 36,000  Level FlightAware ADS-B
05:26PM 38.7080 -95.9736 259° West 382 440 36,000  Level FlightAware ADS-B
05:27PM 38.6982 -96.0359 259° West 381 438 36,000  Level FlightAware ADS-B
05:27PM 38.6828 -96.1378 259° West 381 438 36,000  Level Kansas City Center
05:28PM 38.6633 -96.2636 259° West 380 437 36,000  Level Kansas City Center
05:29PM 38.6394 -96.4103 258° West 378 435 36,000  Level Kansas City Center
05:30PM 38.6192 -96.5353 258° West 378 435 36,000  Level Kansas City Center
05:32PM 38.5953 -96.6817 258° West 378 435 36,000  Level Kansas City Center
05:33PM 38.5722 -96.8175 258° West 378 435 36,000  Level Kansas City Center
05:34PM 38.5494 -96.9547 258° West 378 435 36,000  Level Kansas City Center
05:35PM 38.5269 -97.0914 258° West 377 434 36,000  Level Kansas City Center
05:36PM 38.5061 -97.2158 258° West 375 432 36,000  Level Kansas City Center
05:37PM 38.4825 -97.3506 257° West 374 430 36,000  Level Kansas City Center
05:38PM 38.4600 -97.4850 258° West 374 430 36,000  Level Kansas City Center
05:39PM 38.4364 -97.6194 257° West 373 429 36,000  Level Kansas City Center
05:40PM 38.4136 -97.7547 258° West 373 429 36,000  Level Kansas City Center
05:41PM 38.3897 -97.8911 257° West 376 433 36,000  Level Kansas City Center
05:42PM 38.3661 -98.0278 258° West 377 434 36,000  Level Kansas City Center
05:43PM 38.3436 -98.1539 257° West 378 435 36,000  Level Kansas City Center
05:44PM 38.3192 -98.2931 257° West 385 443 36,000  Level Kansas City Center
05:45PM 38.2931 -98.4303 256° West 384 442 36,000  Level Kansas City Center
05:46PM 38.2678 -98.5694 257° West 388 447 36,000  Level Kansas City Center
05:47PM 38.2422 -98.7083 257° West 386 444 36,000  Level Kansas City Center
05:48PM 38.2181 -98.8411 257° West 386 444 36,000  Level Kansas City Center
05:49PM 38.1956 -98.9667 257° West 384 442 36,000  Level Kansas City Center
05:50PM 38.1706 -99.1153 258° West 384 442 36,000  Level Kansas City Center
05:51PM 38.1447 -99.2383 255° West 384 442 36,000  Level Kansas City Center
05:52PM 38.1172 -99.3831 256° West 382 440 36,000  Level Kansas City Center
05:53PM 38.0944 -99.5078 257° West 382 440 36,000  Level Kansas City Center
05:54PM 38.0661 -99.6533 256° West 382 440 36,000  Level Kansas City Center
05:55PM 38.0447 -99.7800 258° West 382 440 36,000  Level Kansas City Center
05:56PM 38.0161 -99.9261 256° West 382 440 36,000  Level Kansas City Center
05:57PM 37.9850 -100.0497 252° West 382 440 36,000  Level Kansas City Center
05:58PM 37.9311 -100.1844 243° Southwest 383 441 36,000  Level Kansas City Center
05:59PM 37.8861 -100.3014 244° Southwest 384 442 36,000  Level Kansas City Center
06:00PM 37.8331 -100.4394 244° Southwest 385 443 36,000  Level Kansas City Center
06:02PM 37.7864 -100.5558 243° Southwest 391 450 36,000  Level Kansas City Center
06:03PM 37.7403 -100.6789 245° Southwest 390 449 36,000  Level Kansas City Center
06:04PM 37.6928 -100.8006 244° Southwest 389 448 36,000  Level Kansas City Center
06:05PM 37.6356 -100.9453 244° Southwest 388 447 36,000  Level Kansas City Center
06:06PM 37.5869 -101.0700 244° Southwest 389 448 36,000  Level Kansas City Center
06:07PM 37.5386 -101.1933 244° Southwest 390 449 36,000  Level Kansas City Center
06:08PM 37.4858 -101.3283 244° Southwest 389 448 36,000  Level Kansas City Center
06:09PM 37.4400 -101.4447 244° Southwest 388 447 36,000  Level Kansas City Center
06:10PM 37.3944 -101.5594 243° Southwest 387 445 36,000  Level Kansas City Center
06:11PM 37.3408 -101.6936 243° Southwest 385 443 36,000  Level Kansas City Center
06:12PM 37.2947 -101.8058 243° Southwest 382 440 36,000  Level Kansas City Center
06:13PM 37.2417 -101.9394 244° Southwest 382 440 36,000  Level Kansas City Center
06:14PM 37.1958 -102.0544 243° Southwest 382 440 36,000  Level Kansas City Center
06:15PM 37.1417 -102.1883 243° Southwest 382 440 36,000  Level Kansas City Center
06:16PM 37.0950 -102.3008 243° Southwest 382 440 36,000  Level Kansas City Center
06:17PM 37.0417 -102.4336 243° Southwest 381 438 36,000  Level Kansas City Center
06:18PM 36.9956 -102.5472 243° Southwest 381 438 36,000  Level Kansas City Center
06:19PM 36.9414 -102.6767 242° Southwest 381 438 36,000  Level Kansas City Center
06:20PM 36.8953 -102.7906 243° Southwest 381 438 36,000  Level Kansas City Center
06:22PM 36.8267 -102.9558 243° Southwest 376 433 36,000  Level Albuquerque Center
06:23PM 36.7731 -103.0844 243° Southwest 372 428 36,000  Level Albuquerque Center
06:24PM 36.7269 -103.1944 242° Southwest 372 428 36,000  Level Albuquerque Center
06:25PM 36.6814 -103.3042 243° Southwest 372 428 36,000  Level Albuquerque Center
06:26PM 36.6314 -103.4353 245° Southwest 371 427 36,000  Level Albuquerque Center
06:27PM 36.5944 -103.5558 249° West 370 426 36,000  Level Albuquerque Center
06:28PM 36.5578 -103.6764 249° West 371 427 36,000  Level Albuquerque Center
06:29PM 36.5200 -103.7967 249° West 372 428 36,000  Level Albuquerque Center
06:30PM 36.4817 -103.9178 249° West 375 432 36,000  Level Albuquerque Center
06:31PM 36.4433 -104.0389 249° West 373 429 36,000  Level Albuquerque Center
06:32PM 36.3992 -104.1781 249° West 367 422 36,000  Level Albuquerque Center
06:33PM 36.3617 -104.2956 248° West 363 418 36,000  Level Albuquerque Center
06:34PM 36.3242 -104.4114 248° West 360 414 36,000  Level Albuquerque Center
06:35PM 36.2869 -104.5275 248° West 360 414 36,000 -540 Level Albuquerque Center
06:40PM 36.0956 -105.1148 248° West 344 396 33,000 -900 Descending FlightAware ADS-B (KBDG)
06:43PM 35.9996 -105.4051 248° West 361 415 29,500 -1,260 Descending FlightAware ADS-B (KBDG)
06:44PM 35.9595 -105.5253 248° West 344 396 28,600 -720 Descending FlightAware ADS-B (KBDG)
06:45PM 35.9227 -105.6358 248° West 340 391 28,100 -540 Descending FlightAware ADS-B (KBDG)
06:46PM 35.8932 -105.7235 248° West 342 394 27,700 -480 Descending FlightAware ADS-B (KBDG)
06:47PM 35.8515 -105.8473 248° West 343 395 27,200 -600 Descending FlightAware ADS-B (KBDG)
06:47PM 35.8227 -105.9325 247° West 339 390 26,600 -780 Descending FlightAware ADS-B (KBDG)
06:51PM 35.6981 -106.2987 247° West 332 382 24,000 -1,380 Descending FlightAware ADS-B (KBDG)
06:54PM 35.5879 -106.5814 217° Southwest 353 406 18,300 -2,100 Descending FlightAware ADS-B (KBDG)
06:55PM 35.5025 -106.6227 199° South 363 418 16,400 -2,160 Descending FlightAware ADS-B (KAEG)
06:55PM 35.4961 -106.6253 199° South 360 414 15,200 -1,980 Descending FlightAware ADS-B (KAEG)
06:56PM 35.3741 -106.6764 200° South 354 407 13,700 -1,980 Descending FlightAware ADS-B (KAEG)
06:57PM 35.3115 -106.7030 199° South 353 406 12,300 -1,800 Descending FlightAware ADS-B (KAEG)
06:57PM 35.2598 -106.7249 199° South 340 391 11,300 -1,620 Descending FlightAware ADS-B (KAEG)
06:58PM 35.2216 -106.7361 182° South 334 384 10,700 -1,860 Descending FlightAware ADS-B (KAEG)
06:58PM 35.1967 -106.7318 157° South 319 367 10,200 -1,080 Descending FlightAware ADS-B (KAEG)
06:58PM 35.1702 -106.7103 130° Southeast 297 342 10,000 -1,020 Descending FlightAware ADS-B (KAEG)
06:59PM 35.1527 -106.6832 128° Southeast 286 329 9,500 -1,440 Descending FlightAware ADS-B (KAEG)
06:59PM 35.1391 -106.6631 130° Southeast 278 320 9,100 -600 Descending FlightAware ADS-B (KAEG)
06:59PM 35.1234 -106.6346 123° Southeast 266 306 9,100 -480 Level FlightAware ADS-B (KAEG)
07:00PM 35.1182 -106.6074 99° East 245 282 8,800 -1,140 Descending FlightAware ADS-B (KAEG)
07:01PM 35.1097 -106.5483 99° East 237 273 7,600 -1,320 Descending Albuquerque Center
07:01PM 35.0856 -106.5269 144° Southeast 192 221 7,100 -1,020 Descending Albuquerque Center
07:02PM 35.0536 -106.5214 172° South 184 212 6,600 -780 Descending Albuquerque Center
07:02PM 35.0433 -106.5300 214° Southwest 167 192 6,400 -1,080 Descending Albuquerque Center
07:03PM 35.0439 -106.5703 271° West 159 183 5,500 -1,080 Descending Albuquerque Center